sensor_id;sensor_type;location;lat;lon;timestamp;P1;durP1;ratioP1;P2;durP2;ratioP2
14472;SDS011;7322;50.872;4.386;2023-07-31T00:02:35;8.10;;;4.35;;
14472;SDS011;7322;50.872;4.386;2023-07-31T00:05:11;7.65;;;3.95;;
14472;SDS011;7322;50.872;4.386;2023-07-31T00:07:39;7.13;;;3.60;;
14472;SDS011;7322;50.872;4.386;2023-07-31T00:10:10;5.53;;;3.58;;
14472;SDS011;7322;50.872;4.386;2023-07-31T00:12:42;7.72;;;3.95;;
14472;SDS011;7322;50.872;4.386;2023-07-31T00:15:09;8.70;;;3.97;;
14472;SDS011;7322;50.872;4.386;2023-07-31T00:17:49;6.32;;;3.50;;
14472;SDS011;7322;50.872;4.386;2023-07-31T00:20:16;7.30;;;3.72;;
14472;SDS011;7322;50.872;4.386;2023-07-31T00:22:45;7.05;;;3.88;;
14472;SDS011;7322;50.872;4.386;2023-07-31T00:25:19;6.15;;;3.80;;
14472;SDS011;7322;50.872;4.386;2023-07-31T00:28:04;6.22;;;3.47;;
14472;SDS011;7322;50.872;4.386;2023-07-31T00:30:46;6.20;;;3.78;;
14472;SDS011;7322;50.872;4.386;2023-07-31T00:35:51;8.07;;;4.15;;
14472;SDS011;7322;50.872;4.386;2023-07-31T00:38:18;8.63;;;4.65;;
14472;SDS011;7322;50.872;4.386;2023-07-31T00:40:48;7.60;;;4.18;;
14472;SDS011;7322;50.872;4.386;2023-07-31T00:46:10;5.45;;;3.90;;
14472;SDS011;7322;50.872;4.386;2023-07-31T00:48:39;6.68;;;3.70;;
14472;SDS011;7322;50.872;4.386;2023-07-31T00:54:07;7.05;;;3.78;;
14472;SDS011;7322;50.872;4.386;2023-07-31T00:56:41;7.03;;;3.88;;
14472;SDS011;7322;50.872;4.386;2023-07-31T00:59:26;6.95;;;4.00;;
14472;SDS011;7322;50.872;4.386;2023-07-31T01:01:53;8.45;;;4.05;;
14472;SDS011;7322;50.872;4.386;2023-07-31T01:06:52;7.95;;;4.40;;
14472;SDS011;7322;50.872;4.386;2023-07-31T01:09:34;8.20;;;3.78;;
14472;SDS011;7322;50.872;4.386;2023-07-31T01:12:14;8.82;;;4.15;;
14472;SDS011;7322;50.872;4.386;2023-07-31T01:14:51;8.07;;;3.88;;
14472;SDS011;7322;50.872;4.386;2023-07-31T01:17:42;7.68;;;4.03;;
14472;SDS011;7322;50.872;4.386;2023-07-31T01:20:10;7.57;;;4.18;;
14472;SDS011;7322;50.872;4.386;2023-07-31T01:22:48;7.78;;;3.83;;
14472;SDS011;7322;50.872;4.386;2023-07-31T01:28:43;6.93;;;4.18;;
14472;SDS011;7322;50.872;4.386;2023-07-31T01:31:39;7.85;;;4.47;;
14472;SDS011;7322;50.872;4.386;2023-07-31T01:34:09;8.40;;;4.07;;
14472;SDS011;7322;50.872;4.386;2023-07-31T01:36:39;6.90;;;3.70;;
14472;SDS011;7322;50.872;4.386;2023-07-31T01:39:06;6.68;;;4.28;;
14472;SDS011;7322;50.872;4.386;2023-07-31T01:41:35;5.57;;;3.42;;
14472;SDS011;7322;50.872;4.386;2023-07-31T01:46:34;7.40;;;3.92;;
14472;SDS011;7322;50.872;4.386;2023-07-31T01:49:08;8.45;;;4.40;;
14472;SDS011;7322;50.872;4.386;2023-07-31T01:51:40;6.85;;;4.35;;
14472;SDS011;7322;50.872;4.386;2023-07-31T01:54:09;8.35;;;3.92;;
14472;SDS011;7322;50.872;4.386;2023-07-31T01:56:40;7.00;;;3.58;;
14472;SDS011;7322;50.872;4.386;2023-07-31T01:59:14;6.60;;;3.97;;
14472;SDS011;7322;50.872;4.386;2023-07-31T02:01:57;8.88;;;4.10;;
14472;SDS011;7322;50.872;4.386;2023-07-31T02:09:52;8.52;;;4.18;;
14472;SDS011;7322;50.872;4.386;2023-07-31T02:14:57;7.13;;;3.72;;
14472;SDS011;7322;50.872;4.386;2023-07-31T02:17:31;8.02;;;4.28;;
14472;SDS011;7322;50.872;4.386;2023-07-31T02:22:39;5.85;;;3.88;;
14472;SDS011;7322;50.872;4.386;2023-07-31T02:25:12;7.22;;;3.83;;
14472;SDS011;7322;50.872;4.386;2023-07-31T02:27:41;7.72;;;4.57;;
14472;SDS011;7322;50.872;4.386;2023-07-31T02:30:10;6.82;;;3.63;;
14472;SDS011;7322;50.872;4.386;2023-07-31T02:32:39;5.43;;;3.60;;
14472;SDS011;7322;50.872;4.386;2023-07-31T02:35:14;8.15;;;3.95;;
14472;SDS011;7322;50.872;4.386;2023-07-31T02:37:47;6.22;;;3.67;;
14472;SDS011;7322;50.872;4.386;2023-07-31T02:43:09;5.03;;;3.65;;
14472;SDS011;7322;50.872;4.386;2023-07-31T02:45:36;6.03;;;4.05;;
14472;SDS011;7322;50.872;4.386;2023-07-31T02:48:09;6.43;;;3.50;;
14472;SDS011;7322;50.872;4.386;2023-07-31T02:53:39;7.53;;;3.70;;
14472;SDS011;7322;50.872;4.386;2023-07-31T02:56:19;6.35;;;3.60;;
14472;SDS011;7322;50.872;4.386;2023-07-31T02:58:50;5.65;;;3.67;;
14472;SDS011;7322;50.872;4.386;2023-07-31T03:01:16;5.65;;;3.67;;
14472;SDS011;7322;50.872;4.386;2023-07-31T03:03:44;5.30;;;3.40;;
14472;SDS011;7322;50.872;4.386;2023-07-31T03:06:18;5.90;;;3.78;;
14472;SDS011;7322;50.872;4.386;2023-07-31T03:08:46;5.13;;;3.22;;
14472;SDS011;7322;50.872;4.386;2023-07-31T03:11:17;7.07;;;3.80;;
14472;SDS011;7322;50.872;4.386;2023-07-31T03:13:55;4.65;;;3.35;;
14472;SDS011;7322;50.872;4.386;2023-07-31T03:16:39;5.15;;;3.30;;
14472;SDS011;7322;50.872;4.386;2023-07-31T03:19:19;4.90;;;3.20;;
14472;SDS011;7322;50.872;4.386;2023-07-31T03:24:40;5.97;;;3.10;;
14472;SDS011;7322;50.872;4.386;2023-07-31T03:27:09;5.65;;;3.30;;
14472;SDS011;7322;50.872;4.386;2023-07-31T03:29:38;5.03;;;3.63;;
14472;SDS011;7322;50.872;4.386;2023-07-31T03:40:43;4.63;;;3.42;;
14472;SDS011;7322;50.872;4.386;2023-07-31T03:43:16;4.07;;;3.22;;
14472;SDS011;7322;50.872;4.386;2023-07-31T03:45:53;6.68;;;3.65;;
14472;SDS011;7322;50.872;4.386;2023-07-31T03:51:21;4.35;;;3.22;;
14472;SDS011;7322;50.872;4.386;2023-07-31T03:53:51;3.75;;;3.03;;
14472;SDS011;7322;50.872;4.386;2023-07-31T03:56:27;5.22;;;3.20;;
14472;SDS011;7322;50.872;4.386;2023-07-31T03:59:05;4.55;;;3.03;;
14472;SDS011;7322;50.872;4.386;2023-07-31T04:01:41;5.25;;;2.80;;
14472;SDS011;7322;50.872;4.386;2023-07-31T04:04:09;5.25;;;3.20;;
14472;SDS011;7322;50.872;4.386;2023-07-31T04:06:37;5.82;;;3.33;;
14472;SDS011;7322;50.872;4.386;2023-07-31T04:09:17;4.15;;;3.10;;
14472;SDS011;7322;50.872;4.386;2023-07-31T04:11:54;4.18;;;3.15;;
14472;SDS011;7322;50.872;4.386;2023-07-31T04:14:29;5.50;;;3.33;;
14472;SDS011;7322;50.872;4.386;2023-07-31T04:17:11;4.88;;;2.80;;
14472;SDS011;7322;50.872;4.386;2023-07-31T04:19:39;5.20;;;3.15;;
14472;SDS011;7322;50.872;4.386;2023-07-31T04:25:19;5.45;;;2.60;;
14472;SDS011;7322;50.872;4.386;2023-07-31T04:31:09;4.35;;;2.90;;
14472;SDS011;7322;50.872;4.386;2023-07-31T04:33:37;5.45;;;2.92;;
14472;SDS011;7322;50.872;4.386;2023-07-31T04:43:55;5.28;;;2.58;;
14472;SDS011;7322;50.872;4.386;2023-07-31T04:46:24;4.30;;;3.15;;
14472;SDS011;7322;50.872;4.386;2023-07-31T04:48:53;5.38;;;3.95;;
14472;SDS011;7322;50.872;4.386;2023-07-31T04:54:47;5.43;;;3.00;;
14472;SDS011;7322;50.872;4.386;2023-07-31T04:57:21;4.70;;;2.90;;
14472;SDS011;7322;50.872;4.386;2023-07-31T04:59:49;5.07;;;3.22;;
14472;SDS011;7322;50.872;4.386;2023-07-31T05:02:18;5.75;;;3.08;;
14472;SDS011;7322;50.872;4.386;2023-07-31T05:04:55;4.78;;;3.00;;
14472;SDS011;7322;50.872;4.386;2023-07-31T05:07:28;8.68;;;3.35;;
14472;SDS011;7322;50.872;4.386;2023-07-31T05:12:35;5.20;;;3.15;;
14472;SDS011;7322;50.872;4.386;2023-07-31T05:15:02;9.05;;;3.53;;
14472;SDS011;7322;50.872;4.386;2023-07-31T05:17:45;7.07;;;3.60;;
14472;SDS011;7322;50.872;4.386;2023-07-31T05:20:16;7.88;;;3.70;;
14472;SDS011;7322;50.872;4.386;2023-07-31T05:25:39;12.95;;;3.60;;
14472;SDS011;7322;50.872;4.386;2023-07-31T05:28:17;11.02;;;3.75;;
14472;SDS011;7322;50.872;4.386;2023-07-31T05:30:52;4.93;;;3.03;;
14472;SDS011;7322;50.872;4.386;2023-07-31T05:33:35;7.93;;;3.58;;
14472;SDS011;7322;50.872;4.386;2023-07-31T05:36:05;6.97;;;3.38;;
14472;SDS011;7322;50.872;4.386;2023-07-31T05:38:33;10.13;;;4.28;;
14472;SDS011;7322;50.872;4.386;2023-07-31T05:41:02;4.50;;;3.20;;
14472;SDS011;7322;50.872;4.386;2023-07-31T05:46:28;7.80;;;3.63;;
14472;SDS011;7322;50.872;4.386;2023-07-31T05:48:58;6.38;;;3.25;;
14472;SDS011;7322;50.872;4.386;2023-07-31T05:51:41;7.55;;;3.35;;
14472;SDS011;7322;50.872;4.386;2023-07-31T05:54:10;7.28;;;3.28;;
14472;SDS011;7322;50.872;4.386;2023-07-31T05:56:38;8.02;;;3.38;;
14472;SDS011;7322;50.872;4.386;2023-07-31T05:59:13;7.97;;;3.55;;
14472;SDS011;7322;50.872;4.386;2023-07-31T06:04:50;10.48;;;3.50;;
14472;SDS011;7322;50.872;4.386;2023-07-31T06:10:14;6.50;;;3.40;;
14472;SDS011;7322;50.872;4.386;2023-07-31T06:12:43;7.82;;;3.40;;
14472;SDS011;7322;50.872;4.386;2023-07-31T06:15:17;10.50;;;4.32;;
14472;SDS011;7322;50.872;4.386;2023-07-31T06:23:08;15.63;;;4.28;;
14472;SDS011;7322;50.872;4.386;2023-07-31T06:25:37;10.95;;;4.13;;
14472;SDS011;7322;50.872;4.386;2023-07-31T06:28:04;8.05;;;3.78;;
14472;SDS011;7322;50.872;4.386;2023-07-31T06:30:32;14.25;;;3.65;;
14472;SDS011;7322;50.872;4.386;2023-07-31T06:33:02;7.65;;;3.60;;
14472;SDS011;7322;50.872;4.386;2023-07-31T06:35:30;8.32;;;4.07;;
14472;SDS011;7322;50.872;4.386;2023-07-31T06:37:58;8.05;;;3.90;;
14472;SDS011;7322;50.872;4.386;2023-07-31T06:40:29;7.88;;;3.72;;
14472;SDS011;7322;50.872;4.386;2023-07-31T06:42:57;6.75;;;3.47;;
14472;SDS011;7322;50.872;4.386;2023-07-31T06:45:24;7.07;;;3.70;;
14472;SDS011;7322;50.872;4.386;2023-07-31T06:47:55;8.98;;;3.75;;
14472;SDS011;7322;50.872;4.386;2023-07-31T06:50:26;6.75;;;3.58;;
14472;SDS011;7322;50.872;4.386;2023-07-31T06:58:14;5.97;;;3.25;;
14472;SDS011;7322;50.872;4.386;2023-07-31T07:00:41;7.35;;;3.17;;
14472;SDS011;7322;50.872;4.386;2023-07-31T07:03:10;7.47;;;3.03;;
14472;SDS011;7322;50.872;4.386;2023-07-31T07:05:40;6.38;;;3.15;;
14472;SDS011;7322;50.872;4.386;2023-07-31T07:08:08;9.30;;;3.47;;
14472;SDS011;7322;50.872;4.386;2023-07-31T07:10:35;6.72;;;3.17;;
14472;SDS011;7322;50.872;4.386;2023-07-31T07:13:05;6.40;;;3.22;;
14472;SDS011;7322;50.872;4.386;2023-07-31T07:15:32;6.53;;;3.67;;
14472;SDS011;7322;50.872;4.386;2023-07-31T07:18:07;7.28;;;3.10;;
14472;SDS011;7322;50.872;4.386;2023-07-31T07:20:39;7.05;;;3.30;;
14472;SDS011;7322;50.872;4.386;2023-07-31T07:23:21;5.18;;;3.30;;
14472;SDS011;7322;50.872;4.386;2023-07-31T07:25:55;3.58;;;2.95;;
14472;SDS011;7322;50.872;4.386;2023-07-31T07:28:37;6.45;;;3.33;;
14472;SDS011;7322;50.872;4.386;2023-07-31T07:31:04;4.47;;;2.90;;
14472;SDS011;7322;50.872;4.386;2023-07-31T07:36:04;4.05;;;2.95;;
14472;SDS011;7322;50.872;4.386;2023-07-31T07:38:35;4.63;;;2.95;;
14472;SDS011;7322;50.872;4.386;2023-07-31T07:41:06;5.70;;;3.05;;
14472;SDS011;7322;50.872;4.386;2023-07-31T07:43:40;5.75;;;2.75;;
14472;SDS011;7322;50.872;4.386;2023-07-31T07:46:07;5.07;;;2.95;;
14472;SDS011;7322;50.872;4.386;2023-07-31T07:48:49;4.25;;;2.88;;
14472;SDS011;7322;50.872;4.386;2023-07-31T07:51:16;6.22;;;3.53;;
14472;SDS011;7322;50.872;4.386;2023-07-31T07:53:44;6.25;;;3.10;;
14472;SDS011;7322;50.872;4.386;2023-07-31T07:56:12;3.60;;;2.92;;
14472;SDS011;7322;50.872;4.386;2023-07-31T07:58:41;4.22;;;3.00;;
14472;SDS011;7322;50.872;4.386;2023-07-31T08:01:08;5.88;;;2.80;;
14472;SDS011;7322;50.872;4.386;2023-07-31T08:03:36;5.65;;;3.40;;
14472;SDS011;7322;50.872;4.386;2023-07-31T08:06:04;7.32;;;3.00;;
14472;SDS011;7322;50.872;4.386;2023-07-31T08:08:33;4.78;;;2.80;;
14472;SDS011;7322;50.872;4.386;2023-07-31T08:11:00;6.95;;;2.90;;
14472;SDS011;7322;50.872;4.386;2023-07-31T08:13:32;3.85;;;2.80;;
14472;SDS011;7322;50.872;4.386;2023-07-31T08:16:12;5.07;;;2.80;;
14472;SDS011;7322;50.872;4.386;2023-07-31T08:18:40;5.75;;;3.03;;
14472;SDS011;7322;50.872;4.386;2023-07-31T08:21:10;4.63;;;2.90;;
14472;SDS011;7322;50.872;4.386;2023-07-31T08:26:14;5.43;;;2.70;;
14472;SDS011;7322;50.872;4.386;2023-07-31T08:28:42;4.22;;;2.58;;
14472;SDS011;7322;50.872;4.386;2023-07-31T08:31:10;6.47;;;3.25;;
14472;SDS011;7322;50.872;4.386;2023-07-31T08:33:38;4.68;;;3.03;;
14472;SDS011;7322;50.872;4.386;2023-07-31T08:36:14;4.72;;;2.80;;
14472;SDS011;7322;50.872;4.386;2023-07-31T08:38:42;3.72;;;2.92;;
14472;SDS011;7322;50.872;4.386;2023-07-31T08:41:11;5.53;;;2.95;;
14472;SDS011;7322;50.872;4.386;2023-07-31T08:43:39;4.43;;;2.78;;
14472;SDS011;7322;50.872;4.386;2023-07-31T08:46:08;6.85;;;2.70;;
14472;SDS011;7322;50.872;4.386;2023-07-31T08:48:43;3.80;;;2.45;;
14472;SDS011;7322;50.872;4.386;2023-07-31T08:51:13;6.00;;;3.08;;
14472;SDS011;7322;50.872;4.386;2023-07-31T08:53:43;4.57;;;2.72;;
14472;SDS011;7322;50.872;4.386;2023-07-31T08:56:17;5.32;;;3.28;;
14472;SDS011;7322;50.872;4.386;2023-07-31T08:58:51;7.10;;;3.80;;
14472;SDS011;7322;50.872;4.386;2023-07-31T09:01:20;5.43;;;2.88;;
14472;SDS011;7322;50.872;4.386;2023-07-31T09:03:50;3.22;;;2.50;;
14472;SDS011;7322;50.872;4.386;2023-07-31T09:06:26;4.22;;;2.83;;
14472;SDS011;7322;50.872;4.386;2023-07-31T09:09:02;5.13;;;2.65;;
14472;SDS011;7322;50.872;4.386;2023-07-31T09:11:32;3.72;;;2.53;;
14472;SDS011;7322;50.872;4.386;2023-07-31T09:19:22;4.20;;;2.63;;
14472;SDS011;7322;50.872;4.386;2023-07-31T09:24:33;5.88;;;3.20;;
14472;SDS011;7322;50.872;4.386;2023-07-31T09:27:10;5.70;;;2.80;;
14472;SDS011;7322;50.872;4.386;2023-07-31T09:29:44;4.05;;;3.05;;
14472;SDS011;7322;50.872;4.386;2023-07-31T09:32:27;4.40;;;2.53;;
14472;SDS011;7322;50.872;4.386;2023-07-31T09:35:01;4.05;;;2.80;;
14472;SDS011;7322;50.872;4.386;2023-07-31T09:37:39;4.38;;;2.58;;
14472;SDS011;7322;50.872;4.386;2023-07-31T09:40:09;4.45;;;3.13;;
14472;SDS011;7322;50.872;4.386;2023-07-31T09:42:52;4.55;;;2.90;;
14472;SDS011;7322;50.872;4.386;2023-07-31T09:45:25;4.53;;;3.10;;
14472;SDS011;7322;50.872;4.386;2023-07-31T09:50:32;4.47;;;3.08;;
14472;SDS011;7322;50.872;4.386;2023-07-31T09:52:59;4.38;;;2.88;;
14472;SDS011;7322;50.872;4.386;2023-07-31T09:55:26;4.60;;;2.95;;
14472;SDS011;7322;50.872;4.386;2023-07-31T09:57:56;4.10;;;2.78;;
14472;SDS011;7322;50.872;4.386;2023-07-31T10:00:34;4.97;;;3.25;;
14472;SDS011;7322;50.872;4.386;2023-07-31T10:03:10;5.78;;;2.88;;
14472;SDS011;7322;50.872;4.386;2023-07-31T10:05:42;3.75;;;2.90;;
14472;SDS011;7322;50.872;4.386;2023-07-31T10:08:21;4.72;;;3.22;;
14472;SDS011;7322;50.872;4.386;2023-07-31T10:10:58;4.25;;;3.30;;
14472;SDS011;7322;50.872;4.386;2023-07-31T10:13:28;5.47;;;3.15;;
14472;SDS011;7322;50.872;4.386;2023-07-31T10:15:58;4.70;;;3.35;;
14472;SDS011;7322;50.872;4.386;2023-07-31T10:18:33;3.95;;;2.95;;
14472;SDS011;7322;50.872;4.386;2023-07-31T10:24:05;6.13;;;3.63;;
14472;SDS011;7322;50.872;4.386;2023-07-31T10:26:40;6.25;;;3.80;;
14472;SDS011;7322;50.872;4.386;2023-07-31T10:29:15;6.72;;;3.75;;
14472;SDS011;7322;50.872;4.386;2023-07-31T10:31:45;6.15;;;3.78;;
14472;SDS011;7322;50.872;4.386;2023-07-31T10:34:23;4.65;;;3.00;;
14472;SDS011;7322;50.872;4.386;2023-07-31T10:39:58;7.22;;;3.78;;
14472;SDS011;7322;50.872;4.386;2023-07-31T10:42:35;5.35;;;3.58;;
14472;SDS011;7322;50.872;4.386;2023-07-31T10:48:12;4.85;;;3.42;;
14472;SDS011;7322;50.872;4.386;2023-07-31T10:50:46;6.40;;;3.60;;
14472;SDS011;7322;50.872;4.386;2023-07-31T10:53:23;5.18;;;3.20;;
14472;SDS011;7322;50.872;4.386;2023-07-31T10:55:53;7.28;;;4.30;;
14472;SDS011;7322;50.872;4.386;2023-07-31T10:58:40;7.40;;;3.75;;
14472;SDS011;7322;50.872;4.386;2023-07-31T11:01:12;5.32;;;3.67;;
14472;SDS011;7322;50.872;4.386;2023-07-31T11:06:15;6.22;;;3.63;;
14472;SDS011;7322;50.872;4.386;2023-07-31T11:08:47;6.28;;;3.70;;
14472;SDS011;7322;50.872;4.386;2023-07-31T11:11:17;7.88;;;4.43;;
14472;SDS011;7322;50.872;4.386;2023-07-31T11:13:55;8.80;;;4.32;;
14472;SDS011;7322;50.872;4.386;2023-07-31T11:16:25;7.50;;;3.85;;
14472;SDS011;7322;50.872;4.386;2023-07-31T11:18:54;6.45;;;4.10;;
14472;SDS011;7322;50.872;4.386;2023-07-31T11:21:22;7.28;;;4.53;;
14472;SDS011;7322;50.872;4.386;2023-07-31T11:26:42;8.57;;;4.60;;
14472;SDS011;7322;50.872;4.386;2023-07-31T11:29:20;7.70;;;3.88;;
14472;SDS011;7322;50.872;4.386;2023-07-31T11:31:57;7.40;;;3.90;;
14472;SDS011;7322;50.872;4.386;2023-07-31T11:34:31;8.43;;;4.28;;
14472;SDS011;7322;50.872;4.386;2023-07-31T11:36:59;6.03;;;4.25;;
14472;SDS011;7322;50.872;4.386;2023-07-31T11:39:28;7.22;;;4.07;;
14472;SDS011;7322;50.872;4.386;2023-07-31T11:47:28;4.97;;;3.85;;
14472;SDS011;7322;50.872;4.386;2023-07-31T11:50:00;4.65;;;3.95;;
14472;SDS011;7322;50.872;4.386;2023-07-31T11:52:33;5.60;;;4.00;;
14472;SDS011;7322;50.872;4.386;2023-07-31T11:55:07;6.53;;;3.80;;
14472;SDS011;7322;50.872;4.386;2023-07-31T11:57:40;7.15;;;3.72;;
14472;SDS011;7322;50.872;4.386;2023-07-31T12:00:10;6.25;;;4.10;;
14472;SDS011;7322;50.872;4.386;2023-07-31T12:02:41;6.45;;;4.30;;
14472;SDS011;7322;50.872;4.386;2023-07-31T12:05:10;7.68;;;4.50;;
14472;SDS011;7322;50.872;4.386;2023-07-31T12:07:52;6.85;;;4.00;;
14472;SDS011;7322;50.872;4.386;2023-07-31T12:13:10;10.20;;;4.75;;
14472;SDS011;7322;50.872;4.386;2023-07-31T12:15:40;6.57;;;4.15;;
14472;SDS011;7322;50.872;4.386;2023-07-31T12:18:10;6.45;;;4.32;;
14472;SDS011;7322;50.872;4.386;2023-07-31T12:23:15;5.93;;;4.20;;
14472;SDS011;7322;50.872;4.386;2023-07-31T12:28:35;6.25;;;4.13;;
14472;SDS011;7322;50.872;4.386;2023-07-31T12:31:09;7.82;;;4.43;;
14472;SDS011;7322;50.872;4.386;2023-07-31T12:33:40;6.05;;;4.00;;
14472;SDS011;7322;50.872;4.386;2023-07-31T12:36:13;6.45;;;4.28;;
14472;SDS011;7322;50.872;4.386;2023-07-31T12:38:49;8.38;;;4.20;;
14472;SDS011;7322;50.872;4.386;2023-07-31T12:41:25;5.57;;;3.95;;
14472;SDS011;7322;50.872;4.386;2023-07-31T12:44:10;6.90;;;4.20;;
14472;SDS011;7322;50.872;4.386;2023-07-31T12:46:38;7.25;;;4.38;;
14472;SDS011;7322;50.872;4.386;2023-07-31T12:49:14;6.93;;;4.20;;
14472;SDS011;7322;50.872;4.386;2023-07-31T12:51:48;6.43;;;4.32;;
14472;SDS011;7322;50.872;4.386;2023-07-31T12:54:17;6.63;;;4.20;;
14472;SDS011;7322;50.872;4.386;2023-07-31T12:56:54;5.43;;;4.00;;
14472;SDS011;7322;50.872;4.386;2023-07-31T13:02:10;7.50;;;4.28;;
14472;SDS011;7322;50.872;4.386;2023-07-31T13:04:38;6.25;;;4.18;;
14472;SDS011;7322;50.872;4.386;2023-07-31T13:07:06;5.53;;;3.85;;
14472;SDS011;7322;50.872;4.386;2023-07-31T13:09:51;7.78;;;4.53;;
14472;SDS011;7322;50.872;4.386;2023-07-31T13:12:33;6.88;;;4.15;;
14472;SDS011;7322;50.872;4.386;2023-07-31T13:15:13;6.25;;;3.97;;
14472;SDS011;7322;50.872;4.386;2023-07-31T13:20:29;6.38;;;3.78;;
14472;SDS011;7322;50.872;4.386;2023-07-31T13:23:01;5.18;;;3.53;;
14472;SDS011;7322;50.872;4.386;2023-07-31T13:25:40;5.53;;;3.40;;
14472;SDS011;7322;50.872;4.386;2023-07-31T13:28:11;5.60;;;3.42;;
14472;SDS011;7322;50.872;4.386;2023-07-31T13:30:39;5.82;;;3.38;;
14472;SDS011;7322;50.872;4.386;2023-07-31T13:33:08;5.40;;;3.60;;
14472;SDS011;7322;50.872;4.386;2023-07-31T13:35:41;5.15;;;3.53;;
14472;SDS011;7322;50.872;4.386;2023-07-31T13:38:09;5.95;;;3.75;;
14472;SDS011;7322;50.872;4.386;2023-07-31T13:40:39;4.10;;;3.20;;
14472;SDS011;7322;50.872;4.386;2023-07-31T13:45:49;4.93;;;3.30;;
14472;SDS011;7322;50.872;4.386;2023-07-31T13:56:14;4.97;;;3.40;;
14472;SDS011;7322;50.872;4.386;2023-07-31T13:58:50;3.65;;;2.60;;
14472;SDS011;7322;50.872;4.386;2023-07-31T14:01:19;5.70;;;3.33;;
14472;SDS011;7322;50.872;4.386;2023-07-31T14:03:51;6.18;;;3.47;;
14472;SDS011;7322;50.872;4.386;2023-07-31T14:06:19;6.47;;;3.33;;
14472;SDS011;7322;50.872;4.386;2023-07-31T14:09:01;5.35;;;3.00;;
14472;SDS011;7322;50.872;4.386;2023-07-31T14:11:30;3.78;;;2.78;;
14472;SDS011;7322;50.872;4.386;2023-07-31T14:13:58;4.30;;;2.58;;
14472;SDS011;7322;50.872;4.386;2023-07-31T14:16:26;4.18;;;2.72;;
14472;SDS011;7322;50.872;4.386;2023-07-31T14:18:54;3.97;;;2.85;;
14472;SDS011;7322;50.872;4.386;2023-07-31T14:21:21;5.13;;;2.95;;
14472;SDS011;7322;50.872;4.386;2023-07-31T14:23:48;4.53;;;2.92;;
14472;SDS011;7322;50.872;4.386;2023-07-31T14:26:16;5.43;;;2.70;;
14472;SDS011;7322;50.872;4.386;2023-07-31T14:31:40;4.00;;;2.67;;
14472;SDS011;7322;50.872;4.386;2023-07-31T14:34:14;4.20;;;2.60;;
14472;SDS011;7322;50.872;4.386;2023-07-31T14:39:14;3.80;;;2.70;;
14472;SDS011;7322;50.872;4.386;2023-07-31T14:42:00;3.55;;;2.75;;
14472;SDS011;7322;50.872;4.386;2023-07-31T14:44:28;4.70;;;2.80;;
14472;SDS011;7322;50.872;4.386;2023-07-31T14:46:55;4.38;;;2.40;;
14472;SDS011;7322;50.872;4.386;2023-07-31T14:49:32;3.70;;;2.70;;
14472;SDS011;7322;50.872;4.386;2023-07-31T14:52:01;4.18;;;2.65;;
14472;SDS011;7322;50.872;4.386;2023-07-31T14:54:35;3.05;;;2.33;;
14472;SDS011;7322;50.872;4.386;2023-07-31T14:57:02;3.60;;;2.72;;
14472;SDS011;7322;50.872;4.386;2023-07-31T14:59:41;3.63;;;2.60;;
14472;SDS011;7322;50.872;4.386;2023-07-31T15:02:10;4.00;;;2.33;;
14472;SDS011;7322;50.872;4.386;2023-07-31T15:04:39;3.58;;;2.47;;
14472;SDS011;7322;50.872;4.386;2023-07-31T15:07:20;3.33;;;2.40;;
14472;SDS011;7322;50.872;4.386;2023-07-31T15:09:49;3.10;;;2.22;;
14472;SDS011;7322;50.872;4.386;2023-07-31T15:12:16;3.50;;;2.45;;
14472;SDS011;7322;50.872;4.386;2023-07-31T15:14:45;2.88;;;2.17;;
14472;SDS011;7322;50.872;4.386;2023-07-31T15:17:12;3.60;;;2.20;;
14472;SDS011;7322;50.872;4.386;2023-07-31T15:19:40;2.83;;;2.33;;
14472;SDS011;7322;50.872;4.386;2023-07-31T15:25:06;2.78;;;2.03;;
14472;SDS011;7322;50.872;4.386;2023-07-31T15:27:41;3.22;;;2.15;;
14472;SDS011;7322;50.872;4.386;2023-07-31T15:30:11;2.25;;;1.95;;
14472;SDS011;7322;50.872;4.386;2023-07-31T15:32:40;2.55;;;1.85;;
14472;SDS011;7322;50.872;4.386;2023-07-31T15:37:48;2.42;;;1.95;;
14472;SDS011;7322;50.872;4.386;2023-07-31T15:40:17;3.05;;;1.90;;
14472;SDS011;7322;50.872;4.386;2023-07-31T15:42:45;2.40;;;1.80;;
14472;SDS011;7322;50.872;4.386;2023-07-31T15:45:14;2.65;;;1.90;;
14472;SDS011;7322;50.872;4.386;2023-07-31T15:47:43;2.35;;;1.67;;
14472;SDS011;7322;50.872;4.386;2023-07-31T15:50:13;2.00;;;1.63;;
14472;SDS011;7322;50.872;4.386;2023-07-31T15:52:40;2.33;;;1.67;;
14472;SDS011;7322;50.872;4.386;2023-07-31T15:55:25;1.98;;;1.48;;
14472;SDS011;7322;50.872;4.386;2023-07-31T15:58:01;2.80;;;1.60;;
14472;SDS011;7322;50.872;4.386;2023-07-31T16:00:41;1.50;;;1.40;;
14472;SDS011;7322;50.872;4.386;2023-07-31T16:03:09;1.98;;;1.50;;
14472;SDS011;7322;50.872;4.386;2023-07-31T16:05:38;2.08;;;1.45;;
14472;SDS011;7322;50.872;4.386;2023-07-31T16:08:07;1.63;;;1.52;;
14472;SDS011;7322;50.872;4.386;2023-07-31T16:10:40;2.65;;;1.45;;
14472;SDS011;7322;50.872;4.386;2023-07-31T16:13:10;1.73;;;1.38;;
14472;SDS011;7322;50.872;4.386;2023-07-31T16:15:46;2.13;;;1.60;;
14472;SDS011;7322;50.872;4.386;2023-07-31T16:18:19;1.52;;;1.40;;
14472;SDS011;7322;50.872;4.386;2023-07-31T16:20:52;4.00;;;1.60;;
14472;SDS011;7322;50.872;4.386;2023-07-31T16:23:21;2.65;;;1.50;;
14472;SDS011;7322;50.872;4.386;2023-07-31T16:25:49;2.20;;;1.40;;
14472;SDS011;7322;50.872;4.386;2023-07-31T16:28:16;3.00;;;1.40;;
14472;SDS011;7322;50.872;4.386;2023-07-31T16:30:46;2.00;;;1.38;;
14472;SDS011;7322;50.872;4.386;2023-07-31T16:36:10;2.45;;;1.50;;
14472;SDS011;7322;50.872;4.386;2023-07-31T16:38:39;1.42;;;1.17;;
14472;SDS011;7322;50.872;4.386;2023-07-31T16:43:36;2.70;;;1.50;;
14472;SDS011;7322;50.872;4.386;2023-07-31T16:46:12;1.83;;;1.40;;
14472;SDS011;7322;50.872;4.386;2023-07-31T16:48:39;1.75;;;1.38;;
14472;SDS011;7322;50.872;4.386;2023-07-31T16:51:06;2.35;;;1.42;;
14472;SDS011;7322;50.872;4.386;2023-07-31T16:53:37;2.20;;;1.60;;
14472;SDS011;7322;50.872;4.386;2023-07-31T16:56:13;2.22;;;1.60;;
14472;SDS011;7322;50.872;4.386;2023-07-31T16:58:42;3.28;;;1.60;;
14472;SDS011;7322;50.872;4.386;2023-07-31T17:01:09;2.03;;;1.40;;
14472;SDS011;7322;50.872;4.386;2023-07-31T17:03:40;1.50;;;1.40;;
14472;SDS011;7322;50.872;4.386;2023-07-31T17:06:14;1.58;;;1.48;;
14472;SDS011;7322;50.872;4.386;2023-07-31T17:08:55;1.58;;;1.40;;
14472;SDS011;7322;50.872;4.386;2023-07-31T17:11:24;2.20;;;1.67;;
14472;SDS011;7322;50.872;4.386;2023-07-31T17:14:01;1.95;;;1.70;;
14472;SDS011;7322;50.872;4.386;2023-07-31T17:16:34;2.13;;;1.42;;
14472;SDS011;7322;50.872;4.386;2023-07-31T17:19:02;2.22;;;1.60;;
14472;SDS011;7322;50.872;4.386;2023-07-31T17:21:30;2.00;;;1.58;;
14472;SDS011;7322;50.872;4.386;2023-07-31T17:24:00;5.03;;;1.50;;
14472;SDS011;7322;50.872;4.386;2023-07-31T17:26:33;1.50;;;1.40;;
14472;SDS011;7322;50.872;4.386;2023-07-31T17:29:00;2.97;;;1.83;;
14472;SDS011;7322;50.872;4.386;2023-07-31T17:31:27;1.77;;;1.60;;
14472;SDS011;7322;50.872;4.386;2023-07-31T17:34:12;3.03;;;1.80;;
14472;SDS011;7322;50.872;4.386;2023-07-31T17:36:40;2.20;;;1.60;;
14472;SDS011;7322;50.872;4.386;2023-07-31T17:39:07;2.83;;;1.95;;
14472;SDS011;7322;50.872;4.386;2023-07-31T17:41:40;2.30;;;1.63;;
14472;SDS011;7322;50.872;4.386;2023-07-31T17:44:07;2.97;;;1.95;;
14472;SDS011;7322;50.872;4.386;2023-07-31T17:46:40;1.70;;;1.60;;
14472;SDS011;7322;50.872;4.386;2023-07-31T17:49:07;3.53;;;1.85;;
14472;SDS011;7322;50.872;4.386;2023-07-31T17:51:36;2.70;;;1.80;;
14472;SDS011;7322;50.872;4.386;2023-07-31T17:54:09;3.28;;;2.00;;
14472;SDS011;7322;50.872;4.386;2023-07-31T17:56:36;1.75;;;1.65;;
14472;SDS011;7322;50.872;4.386;2023-07-31T17:59:10;3.67;;;1.83;;
14472;SDS011;7322;50.872;4.386;2023-07-31T18:01:44;6.05;;;1.95;;
14472;SDS011;7322;50.872;4.386;2023-07-31T18:04:11;4.72;;;1.83;;
14472;SDS011;7322;50.872;4.386;2023-07-31T18:06:41;4.07;;;1.77;;
14472;SDS011;7322;50.872;4.386;2023-07-31T18:09:09;3.75;;;1.98;;
14472;SDS011;7322;50.872;4.386;2023-07-31T18:11:37;3.30;;;1.50;;
14472;SDS011;7322;50.872;4.386;2023-07-31T18:16:40;5.85;;;1.67;;
14472;SDS011;7322;50.872;4.386;2023-07-31T18:19:14;4.72;;;1.80;;